Time;durP1;ratioP1;P1;durP2;ratioP2;P2;SDS_P1;SDS_P2;PMS_P1;PMS_P2;Temp;Humidity;BMP_temperature;BMP_pressure;BME280_temperature;BME280_humidity;BME280_pressure;Samples;Min_cycle;Max_cycle;Signal;HPM_P1;HPM_P2
2022/01/08 00:02:20;;;;;;;6.33;3.47;;;;;;;1.09;100.00;100748.78;4951572;28;20213;-79
2022/01/08 00:04:46;;;;;;;5.50;2.77;;;;;;;1.75;100.00;100851.13;4970928;28;20193;-80
2022/01/08 00:07:11;;;;;;;5.07;2.80;;;;;;;1.36;100.00;100789.56;4949081;28;20193;-76
2022/01/08 00:09:37;;;;;;;4.73;2.20;;;;;;;1.62;100.00;100837.38;4948086;28;20276;-81
2022/01/08 00:12:02;;;;;;;3.90;2.40;;;;;;;1.49;100.00;100828.91;4970677;28;20612;-80
2022/01/08 00:14:29;;;;;;;3.67;2.53;;;;;;;1.80;100.00;100870.06;4956960;28;20198;-80
2022/01/08 00:16:54;;;;;;;3.87;2.50;;;;;;;1.77;100.00;100864.22;4964693;28;20214;-81
2022/01/08 00:19:20;;;;;;;3.97;2.00;;;;;;;0.06;100.00;100622.59;4968851;28;20442;-78
2022/01/08 00:21:45;;;;;;;4.90;1.97;;;;;;;0.48;100.00;100648.72;4965942;28;20213;-79
2022/01/08 00:24:11;;;;;;;4.70;1.70;;;;;;;0.46;100.00;100634.84;4968487;28;20568;-78
2022/01/08 00:26:36;;;;;;;3.20;1.77;;;;;;;1.35;100.00;100793.97;4968223;28;21201;-78
2022/01/08 00:29:02;;;;;;;2.13;1.60;;;;;;;0.92;100.00;100704.59;4970110;28;20685;-81
2022/01/08 00:31:27;;;;;;;2.17;1.53;;;;;;;1.64;100.00;100848.63;4961457;28;20214;-81
2022/01/08 00:33:53;;;;;;;1.80;1.57;;;;;;;1.16;100.00;100733.25;4969279;28;20186;-80
2022/01/08 00:36:19;;;;;;;2.97;1.50;;;;;;;1.11;100.00;100756.59;4969868;28;20252;-79
2022/01/08 00:38:45;;;;;;;2.83;1.50;;;;;;;0.99;100.00;100715.44;4967340;28;20434;-81
2022/01/08 00:41:10;;;;;;;2.73;1.40;;;;;;;1.43;100.00;100772.16;4963778;28;20312;-82
2022/01/08 00:43:36;;;;;;;2.43;1.60;;;;;;;1.61;100.00;100829.59;4966656;28;20235;-80
2022/01/08 00:46:02;;;;;;;6.80;1.93;;;;;;;0.80;100.00;100708.34;4966990;28;20313;-82
2022/01/08 00:48:27;;;;;;;4.17;1.20;;;;;;;1.54;100.00;100832.78;4965196;28;20647;-81
2022/01/08 00:50:53;;;;;;;3.00;1.80;;;;;;;1.46;100.00;100842.41;4966522;28;20453;-78
2022/01/08 00:53:19;;;;;;;2.97;1.60;;;;;;;1.28;100.00;100790.25;4969946;28;20233;-78
2022/01/08 00:55:44;;;;;;;2.70;1.93;;;;;;;1.05;100.00;100759.78;4968240;28;20293;-81
2022/01/08 00:58:10;;;;;;;3.30;2.43;;;;;;;0.97;100.00;100728.78;4967902;28;20464;-83
2022/01/08 01:00:36;;;;;;;5.07;2.07;;;;;;;0.92;100.00;100704.59;4965022;28;20265;-79
2022/01/08 01:03:01;;;;;;;4.50;2.10;;;;;;;1.57;100.00;100782.28;4966219;28;21094;-80
2022/01/08 01:05:27;;;;;;;5.53;2.90;;;;;;;1.77;100.00;100838.63;4969285;28;20718;-78
2022/01/08 01:07:54;;;;;;;6.30;2.07;;;;;;;-0.36;100.00;100535.78;4971436;28;20198;-82
2022/01/08 01:10:19;;;;;;;5.50;2.17;;;;;;;1.02;100.00;100710.72;4969540;28;20237;-82
2022/01/08 01:12:45;;;;;;;3.73;2.50;;;;;;;1.86;100.00;100831.63;4965163;28;20536;-84
2022/01/08 01:15:14;;;;;;;3.43;2.00;;;;;;;1.56;100.00;100785.91;4968483;28;20213;-80
2022/01/08 01:17:40;;;;;;;7.90;2.13;;;;;;;1.64;100.00;100829.31;4968147;28;20524;-83
2022/01/08 01:20:07;;;;;;;4.07;1.77;;;;;;;0.60;100.00;100642.34;4944623;28;20946;-78
2022/01/08 01:22:44;;;;;;;3.40;2.53;;;;;;;1.41;100.00;100760.88;4968485;28;20499;-79
2022/01/08 01:25:13;;;;;;;2.30;1.90;;;;;;;1.49;100.00;100766.28;4955403;28;20882;-79
2022/01/08 01:28:29;;;;;;;6.20;2.50;;;;;;;1.51;100.00;100766.16;4966695;28;20537;-80
2022/01/08 01:30:54;;;;;;;6.00;2.27;;;;;;;1.90;100.00;100808.38;4953628;28;20449;-79
2022/01/08 01:49:15;;;;;;;2.97;1.43;;;;;;;1.64;100.00;100834.59;4962834;28;20739;-79
2022/01/08 01:51:41;;;;;;;3.43;1.70;;;;;;;1.77;100.00;100827.22;4965504;28;20438;-80
2022/01/08 01:54:06;;;;;;;2.60;1.57;;;;;;;1.42;100.00;100775.78;4966503;28;20190;-80
2022/01/08 01:56:32;;;;;;;4.03;1.90;;;;;;;0.87;100.00;100710.31;4944341;28;20218;-81
2022/01/08 01:58:57;;;;;;;2.57;2.00;;;;;;;1.73;100.00;100842.50;4967733;28;20236;-79
2022/01/08 02:01:25;;;;;;;4.03;1.90;;;;;;;1.49;100.00;100800.66;4968338;28;20411;-79
2022/01/08 02:03:50;;;;;;;3.60;2.30;;;;;;;1.75;100.00;100837.09;4970838;28;20441;-81
2022/01/08 02:06:16;;;;;;;3.60;1.83;;;;;;;1.68;100.00;100838.59;4961851;28;21219;-81
2022/01/08 02:08:42;;;;;;;2.70;1.73;;;;;;;1.77;100.00;100858.94;4967890;28;20197;-80
2022/01/08 02:11:08;;;;;;;4.87;1.97;;;;;;;1.19;100.00;100734.78;4969233;28;20953;-80
2022/01/08 02:13:35;;;;;;;4.70;2.30;;;;;;;1.25;100.00;100764.09;4970522;28;20448;-80
2022/01/08 02:16:01;;;;;;;2.77;1.57;;;;;;;1.93;100.00;100842.47;4952054;28;20929;-80
2022/01/08 02:18:28;;;;;;;3.93;1.67;;;;;;;1.68;100.00;100815.66;4969774;28;20991;-81
2022/01/08 02:20:59;;;;;;;5.17;2.03;;;;;;;1.85;100.00;100852.94;4971753;28;20440;-81
2022/01/08 02:23:26;;;;;;;3.57;1.70;;;;;;;1.12;100.00;100716.81;4972740;28;20445;-81
2022/01/08 02:25:51;;;;;;;2.73;1.87;;;;;;;1.89;100.00;100830.53;4970184;28;20938;-81
2022/01/08 02:28:17;;;;;;;5.37;2.27;;;;;;;1.71;100.00;100793.41;4974816;28;20498;-81
2022/01/08 02:30:43;;;;;;;3.00;1.67;;;;;;;1.70;100.00;100800.47;4970436;28;20189;-81
2022/01/08 02:33:09;;;;;;;2.63;1.67;;;;;;;1.86;100.00;100855.44;4966175;28;20532;-79
2022/01/08 02:35:34;;;;;;;2.70;1.93;;;;;;;1.88;100.00;100855.28;4969044;28;20486;-79
2022/01/08 02:38:00;;;;;;;2.90;2.27;;;;;;;1.30;100.00;100758.38;4970303;28;20201;-79
2022/01/08 02:40:26;;;;;;;4.07;1.80;;;;;;;1.72;100.00;100818.84;4970308;28;20267;-82
2022/01/08 02:43:00;;;;;;;2.23;1.70;;;;;;;1.84;100.00;100851.28;4968973;28;20541;-81
2022/01/08 02:45:26;;;;;;;2.17;1.77;;;;;;;1.56;100.00;100798.28;4965831;28;20530;-82
2022/01/08 02:47:55;;;;;;;2.93;1.50;;;;;;;2.14;100.00;100847.56;4969968;28;20458;-80
2022/01/08 02:50:22;;;;;;;4.60;1.70;;;;;;;1.76;100.00;100815.78;4971401;28;20452;-81
2022/01/08 02:52:48;;;;;;;2.30;1.73;;;;;;;1.58;100.00;100754.03;4968952;28;20460;-81
2022/01/08 02:55:16;;;;;;;3.80;1.50;;;;;;;1.86;100.00;100786.69;4971542;28;20472;-80
2022/01/08 02:57:42;;;;;;;5.03;1.67;;;;;;;1.19;100.00;100706.53;4970611;28;20441;-81
2022/01/08 03:00:09;;;;;;;3.30;1.60;;;;;;;1.91;100.00;100818.81;4970227;28;20437;-81
2022/01/08 03:02:40;;;;;;;8.90;1.93;;;;;;;1.99;100.00;100808.34;4969838;28;20186;-84
2022/01/08 03:05:07;;;;;;;3.67;1.97;;;;;;;1.28;100.00;100678.44;4970847;28;21000;-81
2022/01/08 03:07:33;;;;;;;2.17;1.37;;;;;;;1.17;100.00;100681.22;4970032;28;20484;-79
2022/01/08 03:09:58;;;;;;;5.83;2.00;;;;;;;1.67;100.00;100762.91;4972370;28;20488;-80
2022/01/08 03:12:27;;;;;;;1.30;1.20;;;;;;;2.19;100.00;100811.75;4968663;28;20205;-80
2022/01/08 03:14:55;;;;;;;6.10;1.30;;;;;;;2.36;100.00;100806.69;4964131;28;20221;-80
2022/01/08 03:17:20;;;;;;;4.03;1.90;;;;;;;1.80;100.00;100713.19;4967148;28;20477;-79
2022/01/08 03:19:46;;;;;;;5.17;1.87;;;;;;;2.12;100.00;100805.38;4967464;28;20973;-78
2022/01/08 03:22:12;;;;;;;6.27;2.07;;;;;;;1.04;100.00;100655.94;4969515;28;20194;-80
2022/01/08 03:24:39;;;;;;;3.77;1.37;;;;;;;2.08;100.00;100797.88;4970054;28;20198;-80
2022/01/08 03:27:05;;;;;;;5.87;1.40;;;;;;;2.03;100.00;100762.13;4969571;28;20445;-81
2022/01/08 03:29:31;;;;;;;4.00;1.67;;;;;;;2.28;100.00;100811.88;4971197;28;20503;-81
2022/01/08 03:31:56;;;;;;;3.47;1.63;;;;;;;1.93;100.00;100736.66;4970507;28;20182;-81
2022/01/08 03:34:22;;;;;;;4.20;1.40;;;;;;;2.22;100.00;100800.06;4972371;28;20193;-82
2022/01/08 03:36:47;;;;;;;3.07;1.50;;;;;;;2.11;100.00;100803.72;4966564;28;20209;-81
2022/01/08 03:39:13;;;;;;;6.20;1.80;;;;;;;1.91;100.00;100799.44;4969559;28;20193;-80
2022/01/08 03:41:39;;;;;;;5.90;1.30;;;;;;;1.48;100.00;100732.91;4969150;28;20247;-79
2022/01/08 03:44:05;;;;;;;2.27;1.20;;;;;;;2.20;100.00;100802.84;4969633;28;20204;-80
2022/01/08 03:46:34;;;;;;;6.53;1.67;;;;;;;2.19;100.00;100811.75;4970848;28;20981;-80
2022/01/08 03:51:29;;;;;;;2.40;1.67;;;;;;;2.09;100.00;100776.56;4968217;28;20605;-82
2022/01/08 03:53:56;;;;;;;3.00;1.10;;;;;;;2.08;100.00;100796.06;4970171;28;20463;-79
2022/01/08 03:56:21;;;;;;;3.07;1.60;;;;;;;2.14;100.00;100789.34;4967610;28;20516;-82
2022/01/08 03:58:47;;;;;;;5.20;1.70;;;;;;;1.85;100.00;100733.91;4968745;28;20924;-81
2022/01/08 04:01:12;;;;;;;2.40;1.57;;;;;;;1.92;100.00;100745.59;4967777;28;20636;-82
2022/01/08 04:03:38;;;;;;;4.00;1.50;;;;;;;2.32;100.00;100822.03;4970899;28;20193;-83
2022/01/08 04:06:03;;;;;;;5.17;1.97;;;;;;;2.06;100.00;100776.88;4970150;28;20770;-82
2022/01/08 04:08:29;;;;;;;2.03;1.30;;;;;;;2.44;100.00;100836.75;4968663;28;20200;-82
2022/01/08 04:10:55;;;;;;;2.60;2.10;;;;;;;0.89;100.00;100600.06;4968588;28;20556;-82
2022/01/08 04:13:25;;;;;;;2.20;1.30;;;;;;;1.90;100.00;100756.31;4968918;28;20733;-81
2022/01/08 04:15:55;;;;;;;3.23;1.73;;;;;;;2.40;100.00;100842.47;4959311;28;20213;-79
2022/01/08 04:18:20;;;;;;;3.10;1.60;;;;;;;2.16;100.00;100824.44;4972743;28;20459;-79
2022/01/08 04:23:30;;;;;;;4.40;1.50;;;;;;;2.39;100.00;100817.81;4970090;28;20181;-79
2022/01/08 04:25:55;;;;;;;2.60;1.90;;;;;;;2.21;100.00;100777.22;4961004;28;20465;-79
2022/01/08 04:28:21;;;;;;;4.20;2.00;;;;;;;2.36;100.00;100811.97;4968262;28;20240;-79
2022/01/08 04:30:47;;;;;;;4.70;2.00;;;;;;;1.78;100.00;100745.06;4969613;28;20193;-77
2022/01/08 04:33:12;;;;;;;3.30;1.50;;;;;;;1.83;100.00;100738.53;4971394;28;20185;-79
2022/01/08 04:35:38;;;;;;;2.53;1.87;;;;;;;2.34;100.00;100830.63;4965331;28;20221;-82
2022/01/08 04:38:04;;;;;;;4.40;2.27;;;;;;;1.34;100.00;100718.31;4969032;28;20186;-78
2022/01/08 04:40:32;;;;;;;4.80;2.07;;;;;;;2.32;100.00;100840.56;4967143;28;20596;-82
2022/01/08 04:42:59;;;;;;;4.67;2.13;;;;;;;1.69;100.00;100782.94;4966531;28;20484;-82
2022/01/08 04:45:28;;;;;;;3.03;2.03;;;;;;;1.81;100.00;100791.56;4968904;28;20953;-79
2022/01/08 04:47:54;;;;;;;2.30;1.80;;;;;;;1.48;100.00;100774.38;4965971;28;20520;-81
2022/01/08 04:50:19;;;;;;;2.60;1.80;;;;;;;1.84;100.00;100844.16;4958243;28;22111;-83
2022/01/08 04:52:44;;;;;;;5.97;2.50;;;;;;;2.01;100.00;100843.44;4966566;28;20203;-80
2022/01/08 04:55:10;;;;;;;5.63;2.70;;;;;;;1.56;100.00;100750.69;4965062;28;20244;-80
2022/01/08 04:57:36;;;;;;;4.33;2.70;;;;;;;1.87;100.00;100777.75;4968805;28;20309;-80
2022/01/08 05:00:03;;;;;;;4.13;2.13;;;;;;;2.26;100.00;100844.63;4967322;28;20830;-80
2022/01/08 05:02:28;;;;;;;4.53;2.30;;;;;;;1.99;100.00;100847.19;4970052;28;20369;-78
2022/01/08 05:04:54;;;;;;;3.97;2.03;;;;;;;2.17;100.00;100855.22;4946250;28;20671;-80
2022/01/08 05:07:19;;;;;;;8.20;2.20;;;;;;;1.88;100.00;100779.44;4970684;28;20193;-81
2022/01/08 05:09:45;;;;;;;2.50;1.80;;;;;;;1.52;100.00;100709.66;4969595;28;20205;-82
2022/01/08 05:12:10;;;;;;;3.90;1.73;;;;;;;2.45;100.00;100854.28;4968939;28;20278;-80
2022/01/08 05:14:35;;;;;;;4.37;1.83;;;;;;;2.38;100.00;100845.28;4967621;28;20205;-83
2022/01/08 05:17:02;;;;;;;6.13;2.00;;;;;;;2.54;100.00;100859.69;4967559;28;20210;-81
2022/01/08 05:19:43;;;;;;;3.27;1.60;;;;;;;2.35;100.00;100832.34;4969677;28;20556;-82
2022/01/08 05:22:17;;;;;;;5.03;1.70;;;;;;;1.73;100.00;100754.41;4966167;28;20436;-82
2022/01/08 05:24:43;;;;;;;5.17;1.53;;;;;;;1.93;100.00;100771.88;4967543;28;20426;-80
2022/01/08 05:27:12;;;;;;;3.00;1.70;;;;;;;2.10;100.00;100862.91;4969656;28;20444;-84
2022/01/08 05:29:38;;;;;;;3.10;1.80;;;;;;;1.91;100.00;100802.09;4968160;28;20569;-83
2022/01/08 05:32:03;;;;;;;3.80;1.77;;;;;;;1.02;100.00;100689.59;4966694;28;20437;-82
2022/01/08 05:34:29;;;;;;;6.23;1.90;;;;;;;2.13;100.00;100875.84;4949725;28;20572;-79
2022/01/08 05:36:54;;;;;;;2.37;1.47;;;;;;;2.19;100.00;100832.94;4969839;28;20202;-82
2022/01/08 05:39:20;;;;;;;3.23;1.70;;;;;;;2.26;100.00;100870.25;4972524;28;20852;-84
2022/01/08 05:41:45;;;;;;;4.30;1.47;;;;;;;2.11;100.00;100880.47;4958918;28;20572;-78
2022/01/08 05:44:11;;;;;;;3.40;1.43;;;;;;;1.02;100.00;100710.72;4972013;28;20196;-80
2022/01/08 05:46:38;;;;;;;3.63;1.60;;;;;;;2.08;100.00;100878.09;4959980;28;20275;-80
2022/01/08 05:49:04;;;;;;;3.37;1.10;;;;;;;2.20;100.00;100881.41;4974431;28;20663;-78
2022/01/08 05:51:30;;;;;;;5.57;1.60;;;;;;;2.15;100.00;100847.44;4967415;28;20496;-80
2022/01/08 05:53:55;;;;;;;5.80;1.20;;;;;;;1.39;100.00;100772.56;4970734;28;20775;-78
2022/01/08 05:56:21;;;;;;;4.43;1.37;;;;;;;1.87;100.00;100828.00;4970029;28;20214;-79
2022/01/08 05:58:47;;;;;;;2.93;1.10;;;;;;;2.11;100.00;100882.25;4975622;28;20393;-82
2022/01/08 06:01:12;;;;;;;2.60;1.70;;;;;;;1.67;100.00;100821.09;4971563;28;20475;-81
2022/01/08 06:03:38;;;;;;;2.93;2.07;;;;;;;1.78;100.00;100861.44;4973124;28;20269;-80
2022/01/08 06:06:03;;;;;;;2.60;1.73;;;;;;;1.98;100.00;100878.09;4973158;28;20206;-80
2022/01/08 06:08:28;;;;;;;4.17;1.73;;;;;;;1.93;100.00;100837.19;4972033;28;20185;-80
2022/01/08 06:10:54;;;;;;;4.90;1.50;;;;;;;1.80;100.00;100838.31;4974062;28;20185;-80
2022/01/08 06:13:19;;;;;;;4.07;1.97;;;;;;;2.15;100.00;100870.44;4972353;28;20339;-80
2022/01/08 06:15:45;;;;;;;4.13;1.53;;;;;;;2.28;100.00;100907.97;4949029;28;20337;-81
2022/01/08 06:18:10;;;;;;;5.00;1.50;;;;;;;2.11;100.00;100896.34;4973598;28;20186;-80
2022/01/08 06:20:35;;;;;;;5.50;2.73;;;;;;;2.00;100.00;100901.78;4965422;28;20197;-78
2022/01/08 06:23:01;;;;;;;4.20;2.70;;;;;;;2.07;100.00;100883.53;4966507;28;20290;-82
2022/01/08 06:25:26;;;;;;;4.40;1.87;;;;;;;1.89;100.00;100846.41;4972075;28;20202;-79
2022/01/08 06:27:54;;;;;;;4.50;2.00;;;;;;;0.57;100.00;100670.81;4970986;28;20273;-82
2022/01/08 06:30:19;;;;;;;3.00;1.80;;;;;;;1.13;100.00;100749.38;4970084;28;20305;-85
2022/01/08 06:32:45;;;;;;;4.20;1.90;;;;;;;2.09;100.00;100905.41;4966367;28;20445;-82
2022/01/08 06:35:10;;;;;;;4.33;2.23;;;;;;;2.09;100.00;100905.41;4971418;28;20218;-81
2022/01/08 06:37:36;;;;;;;4.53;2.60;;;;;;;1.23;100.00;100754.63;4971031;28;20193;-81
2022/01/08 06:40:02;;;;;;;2.20;1.80;;;;;;;1.91;100.00;100850.56;4964227;28;20701;-81
2022/01/08 06:42:27;;;;;;;5.17;2.10;;;;;;;1.98;100.00;100903.75;4971804;28;20611;-79
2022/01/08 06:44:53;;;;;;;4.50;2.60;;;;;;;2.24;100.00;100914.56;4973054;28;20252;-78
2022/01/08 06:47:18;;;;;;;4.63;2.50;;;;;;;1.88;100.00;100881.75;4972570;28;20735;-77
2022/01/08 06:49:44;;;;;;;4.60;1.60;;;;;;;1.63;100.00;100854.09;4971940;28;20255;-80
2022/01/08 06:52:09;;;;;;;1.80;1.10;;;;;;;1.08;100.00;100797.31;4972248;28;20197;-80
2022/01/08 06:54:34;;;;;;;3.87;1.60;;;;;;;1.51;100.00;100853.41;4972343;28;20191;-78
2022/01/08 06:57:00;;;;;;;3.80;1.20;;;;;;;1.84;100.00;100917.38;4971398;28;20679;-81
2022/01/08 06:59:25;;;;;;;2.77;1.20;;;;;;;0.90;100.00;100767.28;4968997;28;20213;-79
2022/01/08 07:01:51;;;;;;;2.97;1.20;;;;;;;1.75;100.00;100924.34;4969692;28;20197;-79
2022/01/08 07:04:16;;;;;;;2.20;1.03;;;;;;;1.03;100.00;100762.56;4969159;28;20228;-78
2022/01/08 07:06:41;;;;;;;3.50;1.60;;;;;;;1.69;100.00;100914.34;4973198;28;20690;-81
2022/01/08 07:09:07;;;;;;;4.70;1.30;;;;;;;1.15;100.00;100831.13;4967891;28;20220;-80
2022/01/08 07:11:32;;;;;;;3.23;1.47;;;;;;;1.37;100.00;100830.03;4968446;28;20185;-80
2022/01/08 07:13:58;;;;;;;3.57;1.30;;;;;;;1.44;100.00;100890.09;4966538;28;20632;-79
2022/01/08 07:16:23;;;;;;;3.77;1.20;;;;;;;1.67;100.00;100937.44;4969554;28;20603;-81
2022/01/08 07:18:48;;;;;;;5.73;1.90;;;;;;;0.17;100.00;100709.53;4970229;28;21437;-78
2022/01/08 07:21:14;;;;;;;2.27;1.30;;;;;;;1.16;100.00;100845.97;4965763;28;22285;-79
2022/01/08 07:23:39;;;;;;;3.37;1.37;;;;;;;0.93;100.00;100825.13;4967382;28;20193;-77
2022/01/08 07:26:05;;;;;;;2.30;1.47;;;;;;;1.35;100.00;100901.50;4965148;28;20716;-78
2022/01/08 07:28:30;;;;;;;3.50;1.73;;;;;;;1.05;100.00;100863.66;4967536;28;20293;-81
2022/01/08 07:30:55;;;;;;;2.93;1.87;;;;;;;1.62;100.00;100931.72;4967004;28;20304;-84
2022/01/08 07:33:21;;;;;;;4.00;2.10;;;;;;;1.41;100.00;100911.53;4967515;28;20205;-77
2022/01/08 07:35:46;;;;;;;5.63;2.95;;;;;;;1.44;100.00;100935.03;4963699;28;20539;-81
2022/01/08 07:38:12;;;;;;;5.73;3.10;;;;;;;1.33;100.00;100911.38;4965056;28;20185;-83
2022/01/08 07:40:37;;;;;;;3.90;3.27;;;;;;;1.30;100.00;100903.72;4960243;28;20273;-81
2022/01/08 07:43:03;;;;;;;8.50;3.20;;;;;;;1.31;100.00;100916.81;4964830;28;20189;-78
2022/01/08 07:45:29;;;;;;;8.40;4.07;;;;;;;1.61;100.00;100919.47;4963514;28;20301;-75
2022/01/08 07:47:54;;;;;;;7.00;3.43;;;;;;;0.80;100.00;100814.78;4962866;28;20933;-77
2022/01/08 07:50:20;;;;;;;5.83;3.33;;;;;;;0.52;100.00;100755.72;4945029;28;20694;-79
2022/01/08 07:52:45;;;;;;;7.50;3.63;;;;;;;-0.12;100.00;100656.66;4943681;28;20197;-79
2022/01/08 07:55:12;;;;;;;5.00;3.33;;;;;;;1.69;100.00;100923.09;4966174;28;20315;-75
2022/01/08 07:57:38;;;;;;;6.40;3.20;;;;;;;1.02;100.00;100818.19;4965550;28;20186;-78
2022/01/08 08:00:05;;;;;;;5.40;3.13;;;;;;;1.44;100.00;100929.75;4968152;28;20975;-77
2022/01/08 08:02:30;;;;;;;6.73;3.90;;;;;;;1.41;100.00;100926.56;4971229;28;20450;-76
2022/01/08 08:04:56;;;;;;;6.97;3.37;;;;;;;0.32;100.00;100706.47;4968761;28;20472;-81
2022/01/08 08:07:29;;;;;;;8.07;3.80;;;;;;;1.01;100.00;100858.75;4970557;28;20197;-78
2022/01/08 08:09:56;;;;;;;8.47;4.50;;;;;;;1.00;100.00;100862.38;4966329;28;20193;-76
2022/01/08 08:12:22;;;;;;;6.33;3.73;;;;;;;0.73;100.00;100808.41;4970246;28;20455;-79
2022/01/08 08:14:48;;;;;;;6.40;3.77;;;;;;;1.76;100.00;100926.84;4966309;28;20444;-77
2022/01/08 08:17:13;;;;;;;8.27;3.10;;;;;;;1.37;100.00;100922.53;4967569;28;20472;-77
2022/01/08 08:19:39;;;;;;;8.40;3.60;;;;;;;1.48;100.00;100920.59;4967667;28;20190;-79
2022/01/08 08:22:04;;;;;;;6.80;3.40;;;;;;;1.04;100.00;100838.22;4970197;28;20194;-78
2022/01/08 08:24:30;;;;;;;5.27;3.40;;;;;;;0.86;100.00;100789.66;4966093;28;20273;-82
2022/01/08 08:26:55;;;;;;;9.73;3.40;;;;;;;1.29;100.00;100850.03;4967222;28;20185;-79
2022/01/08 08:29:20;;;;;;;6.90;3.87;;;;;;;0.55;100.00;100751.94;4968042;28;20202;-81
2022/01/08 08:31:46;;;;;;;7.17;3.63;;;;;;;1.56;100.00;100899.59;4961528;28;20264;-79
2022/01/08 08:34:11;;;;;;;8.67;3.43;;;;;;;1.46;100.00;100890.81;4963600;28;20214;-79
2022/01/08 08:36:36;;;;;;;8.30;3.50;;;;;;;0.63;100.00;100771.41;4964891;28;20206;-78
2022/01/08 08:39:02;;;;;;;8.97;3.47;;;;;;;0.83;100.00;100737.94;4967564;28;20456;-77
2022/01/08 08:41:28;;;;;;;13.33;4.07;;;;;;;-0.47;100.00;100551.69;4964311;28;20212;-78
2022/01/08 08:43:53;;;;;;;5.47;3.20;;;;;;;1.60;100.00;100880.81;4967887;28;20231;-82
2022/01/08 08:46:18;;;;;;;7.60;3.63;;;;;;;1.72;100.00;100874.38;4962313;28;20243;-74
2022/01/08 08:48:44;;;;;;;9.57;3.73;;;;;;;1.61;100.00;100879.81;4968332;28;20190;-77
2022/01/08 08:51:10;;;;;;;9.43;3.70;;;;;;;1.57;100.00;100866.06;4960604;28;20289;-79
2022/01/08 08:53:35;;;;;;;14.67;3.60;;;;;;;1.60;100.00;100868.41;4963489;28;20442;-79
2022/01/08 08:56:01;;;;;;;8.97;3.63;;;;;;;1.12;100.00;100784.66;4964594;28;20217;-78
2022/01/08 08:58:27;;;;;;;7.53;3.13;;;;;;;1.64;100.00;100863.69;4961291;28;20189;-76
2022/01/08 09:00:52;;;;;;;6.97;3.60;;;;;;;1.63;100.00;100894.56;4959414;28;20448;-77
2022/01/08 09:03:18;;;;;;;9.27;3.03;;;;;;;1.74;100.00;100890.97;4963712;28;20209;-76
2022/01/08 09:05:43;;;;;;;6.70;3.20;;;;;;;1.12;100.00;100767.00;4962838;28;20285;-76
2022/01/08 09:08:08;;;;;;;11.33;3.50;;;;;;;1.43;100.00;100832.94;4961487;28;20194;-76
2022/01/08 09:10:34;;;;;;;7.07;3.30;;;;;;;1.28;100.00;100790.25;4966034;28;20182;-80
2022/01/08 09:13:00;;;;;;;6.13;2.93;;;;;;;0.94;100.00;100750.19;4964068;28;20178;-81
2022/01/08 09:15:26;;;;;;;6.30;3.40;;;;;;;1.60;100.00;100891.38;4972233;28;20406;-80
2022/01/08 09:17:57;;;;;;;9.53;3.60;;;;;;;1.91;100.00;100870.88;4967413;28;20477;-81
2022/01/08 09:20:23;;;;;;;6.70;3.20;;;;;;;0.36;100.00;100671.78;4968125;28;20511;-79
2022/01/08 09:22:49;;;;;;;7.20;3.07;;;;;;;1.60;100.00;100823.47;4965749;28;20445;-81
2022/01/08 09:25:14;;;;;;;12.90;3.77;;;;;;;0.89;100.00;100733.91;4968344;28;21169;-79
2022/01/08 09:27:40;;;;;;;5.63;3.30;;;;;;;1.85;100.00;100874.91;4969307;28;20196;-83
2022/01/08 09:30:06;;;;;;;7.53;3.33;;;;;;;0.94;100.00;100721.13;4967826;28;20200;-81
2022/01/08 09:32:33;;;;;;;6.30;3.00;;;;;;;1.61;100.00;100835.69;4958676;28;20665;-83
2022/01/08 09:34:59;;;;;;;6.20;2.60;;;;;;;1.30;100.00;100766.31;4969865;28;21098;-84
2022/01/08 09:37:24;;;;;;;6.50;3.47;;;;;;;1.98;100.00;100872.00;4971001;28;20469;-78
2022/01/08 09:39:50;;;;;;;6.40;3.50;;;;;;;1.84;100.00;100840.69;4972769;28;20189;-80
2022/01/08 09:42:15;;;;;;;6.47;3.80;;;;;;;1.85;100.00;100840.53;4964698;28;20461;-85
2022/01/08 09:44:44;;;;;;;6.80;3.50;;;;;;;1.87;100.00;100854.47;4965487;28;20610;-80
2022/01/08 09:47:10;;;;;;;4.63;2.83;;;;;;;1.78;100.00;100786.56;4969442;28;20174;-82
2022/01/08 09:49:37;;;;;;;15.33;4.13;;;;;;;1.13;100.00;100734.34;4968230;28;20535;-78
2022/01/08 09:52:03;;;;;;;8.40;4.10;;;;;;;1.98;100.00;100849.00;4971234;28;20434;-86
2022/01/08 09:54:31;;;;;;;13.70;4.27;;;;;;;1.25;100.00;100710.44;4968102;28;20436;-82
2022/01/08 09:56:57;;;;;;;12.30;4.90;;;;;;;1.65;100.00;100767.50;4968231;28;20462;-82
2022/01/08 09:59:23;;;;;;;8.17;4.10;;;;;;;1.53;100.00;100738.63;4969773;28;20441;-84
2022/01/08 10:01:54;;;;;;;10.70;4.10;;;;;;;2.10;100.00;100807.34;4967046;28;20304;-83
2022/01/08 10:04:25;;;;;;;11.80;3.57;;;;;;;2.35;100.00;100826.22;4965229;28;20449;-83
2022/01/08 10:06:51;;;;;;;13.60;3.93;;;;;;;2.24;100.00;100833.34;4966627;28;20745;-79
2022/01/08 10:09:16;;;;;;;8.80;4.57;;;;;;;2.41;100.00;100791.22;4951428;28;21139;-81
2022/01/08 10:11:49;;;;;;;4.70;3.10;;;;;;;2.40;100.00;100806.25;4965061;28;20186;-76
2022/01/08 10:14:27;;;;;;;9.90;4.30;;;;;;;1.98;100.00;100745.84;4963083;28;20694;-83
2022/01/08 10:19:37;;;;;;;11.17;3.67;;;;;;;2.37;100.00;100776.56;4968905;28;20474;-84
2022/01/08 10:22:15;;;;;;;8.60;3.67;;;;;;;2.41;100.00;100785.91;4965840;28;21013;-82
2022/01/08 10:24:40;;;;;;;6.47;3.43;;;;;;;1.48;100.00;100642.22;4969105;28;20432;-79
2022/01/08 10:27:07;;;;;;;13.63;3.93;;;;;;;1.96;100.00;100716.03;4971754;28;20441;-78
2022/01/08 10:29:33;;;;;;;8.90;3.70;;;;;;;1.88;100.00;100686.00;4969870;28;20324;-82
2022/01/08 10:31:59;;;;;;;10.47;3.23;;;;;;;2.41;100.00;100767.38;4970474;28;20469;-83
2022/01/08 10:34:26;;;;;;;6.20;3.13;;;;;;;1.70;100.00;100614.56;4970141;28;20484;-83
2022/01/08 10:36:54;;;;;;;8.47;4.03;;;;;;;2.60;100.00;100763.78;4969863;28;20276;-83
2022/01/08 10:39:31;;;;;;;9.83;3.70;;;;;;;2.39;100.00;100771.97;4951861;28;20461;-75
2022/01/08 10:41:59;;;;;;;8.90;4.00;;;;;;;2.20;100.00;100752.56;4965227;28;20445;-79
2022/01/08 10:44:26;;;;;;;9.80;3.63;;;;;;;2.34;100.00;100735.34;4970484;28;20468;-80
2022/01/08 10:46:52;;;;;;;8.10;3.40;;;;;;;2.31;100.00;100756.81;4970299;28;20523;-76
2022/01/08 10:49:36;;;;;;;5.40;3.70;;;;;;;1.63;100.00;100648.69;4969947;28;20437;-76
2022/01/08 10:52:10;;;;;;;8.87;4.10;;;;;;;1.72;100.00;100636.41;4950816;28;20268;-78
2022/01/08 10:54:38;;;;;;;6.17;3.90;;;;;;;2.57;100.00;100746.38;4971046;28;20424;-77
2022/01/08 10:57:07;;;;;;;4.30;3.20;;;;;;;2.27;100.00;100736.94;4971553;28;20458;-73
2022/01/08 10:59:33;;;;;;;7.97;3.67;;;;;;;2.38;100.00;100757.09;4969405;28;20465;-76
2022/01/08 11:02:09;;;;;;;8.50;3.83;;;;;;;2.23;100.00;100732.94;4972169;28;20532;-78
2022/01/08 11:04:40;;;;;;;6.67;3.80;;;;;;;2.42;100.00;100743.38;4971704;28;20459;-78
2022/01/08 11:07:08;;;;;;;7.37;3.40;;;;;;;2.48;100.00;100720.78;4947962;28;20433;-76
2022/01/08 11:09:36;;;;;;;14.07;3.70;;;;;;;1.85;100.00;100630.75;4953149;28;20476;-80
2022/01/08 11:12:03;;;;;;;13.37;3.43;;;;;;;1.33;100.00;100544.03;4969781;28;20802;-81
2022/01/08 11:17:33;;;;;;;6.33;4.07;;;;;;;2.43;100.00;100713.31;4966976;28;20706;-77
2022/01/08 11:20:09;;;;;;;7.80;3.20;;;;;;;2.66;100.00;100707.56;4970784;28;21001;-78
2022/01/08 11:22:36;;;;;;;11.97;4.23;;;;;;;2.39;100.00;100701.34;4969016;28;20807;-77
2022/01/08 11:25:15;;;;;;;6.50;3.70;;;;;;;2.50;100.00;100689.72;4972314;28;20614;-79
2022/01/08 11:27:47;;;;;;;12.50;4.40;;;;;;;2.46;100.00;100678.59;4971602;28;20465;-80
2022/01/08 11:30:17;;;;;;;8.13;4.20;;;;;;;2.52;100.00;100676.31;4971284;28;20440;-77
2022/01/08 11:32:43;;;;;;;10.13;4.10;;;;;;;2.45;100.00;100666.31;4970103;28;20994;-77
2022/01/08 11:35:10;;;;;;;10.23;4.40;;;;;;;2.47;100.00;100666.19;4970372;28;20463;-75
2022/01/08 11:37:36;;;;;;;9.73;4.73;;;;;;;1.83;100.00;100566.63;4969070;28;20860;-75
2022/01/08 11:40:07;;;;;;;10.70;4.90;;;;;;;1.71;100.00;100542.19;4967997;28;20469;-81
2022/01/08 11:42:37;;;;;;;6.63;4.57;;;;;;;2.41;100.00;100664.13;4948422;28;20186;-78
2022/01/08 11:45:06;;;;;;;9.50;5.17;;;;;;;2.52;100.00;100631.28;4971810;28;20465;-77
2022/01/08 11:47:31;;;;;;;10.40;5.67;;;;;;;2.59;100.00;100635.84;4970588;28;20517;-75
2022/01/08 11:49:59;;;;;;;9.83;5.33;;;;;;;2.48;100.00;100628.94;4956126;28;20656;-82